Tuttle, Idaho
Current Conditions -  °F | °C
As of 9:09 PM on Tuesday 27 Jan 2015 (Local Time) from KJER Reporting Station
Light Rain Light Rain  
Wind Chill: 37°   Ceiling: 900
Heat Index: 40°   Visibility: 3mi
Dew Point: 39°   Wind: 5mph
Humidity: 97%   Direction: 190°S
Pressure: 30.13"   Gusts: NA
Location:  43.0634°N, 114.867°W
Report Text: KJER 280409Z AUTO 19004KT 3SM -RA BR BKN009 BKN012 OVC040 04/04 A3013 RMK AO2 P0000 T00440039
Loading
Personal Weather Stations






























Interactive Weather Map New forecast layout! Learn more

10-Day Weather Forecast

Advertisements
Track Severe Weather on mobile